sensor_id;sensor_type;location;lat;lon;timestamp;P1;durP1;ratioP1;P2;durP2;ratioP2
39434;SDS011;30098;51.880;-0.518;2022-08-02T00:01:50;1.33;;;1.23;;
39434;SDS011;30098;51.880;-0.518;2022-08-02T00:04:15;1.10;;;1.00;;
39434;SDS011;30098;51.880;-0.518;2022-08-02T00:06:41;1.08;;;0.98;;
39434;SDS011;30098;51.880;-0.518;2022-08-02T00:09:06;1.27;;;1.17;;
39434;SDS011;30098;51.880;-0.518;2022-08-02T00:11:32;1.00;;;0.98;;
39434;SDS011;30098;51.880;-0.518;2022-08-02T00:13:58;1.30;;;1.20;;
39434;SDS011;30098;51.880;-0.518;2022-08-02T00:16:23;1.17;;;1.08;;
39434;SDS011;30098;51.880;-0.518;2022-08-02T00:18:49;1.02;;;1.00;;
39434;SDS011;30098;51.880;-0.518;2022-08-02T00:21:15;1.00;;;1.00;;
39434;SDS011;30098;51.880;-0.518;2022-08-02T00:23:40;1.02;;;1.00;;
39434;SDS011;30098;51.880;-0.518;2022-08-02T00:26:06;1.20;;;1.10;;
39434;SDS011;30098;51.880;-0.518;2022-08-02T00:28:32;1.13;;;1.02;;
39434;SDS011;30098;51.880;-0.518;2022-08-02T00:30:57;1.20;;;1.10;;
39434;SDS011;30098;51.880;-0.518;2022-08-02T00:33:23;1.17;;;1.08;;
39434;SDS011;30098;51.880;-0.518;2022-08-02T00:35:49;1.20;;;1.10;;
39434;SDS011;30098;51.880;-0.518;2022-08-02T00:38:15;1.10;;;1.00;;
39434;SDS011;30098;51.880;-0.518;2022-08-02T00:40:45;1.10;;;1.00;;
39434;SDS011;30098;51.880;-0.518;2022-08-02T00:43:14;0.98;;;0.90;;
39434;SDS011;30098;51.880;-0.518;2022-08-02T00:45:41;1.02;;;0.90;;
39434;SDS011;30098;51.880;-0.518;2022-08-02T00:48:08;1.20;;;1.10;;
39434;SDS011;30098;51.880;-0.518;2022-08-02T00:50:34;1.20;;;1.10;;
39434;SDS011;30098;51.880;-0.518;2022-08-02T00:53:01;1.00;;;0.90;;
39434;SDS011;30098;51.880;-0.518;2022-08-02T00:55:27;1.10;;;1.00;;
39434;SDS011;30098;51.880;-0.518;2022-08-02T00:57:53;1.20;;;1.10;;
39434;SDS011;30098;51.880;-0.518;2022-08-02T01:00:19;1.27;;;1.17;;
39434;SDS011;30098;51.880;-0.518;2022-08-02T01:02:45;0.90;;;0.90;;
39434;SDS011;30098;51.880;-0.518;2022-08-02T01:05:11;1.05;;;1.00;;
39434;SDS011;30098;51.880;-0.518;2022-08-02T01:07:37;1.20;;;1.10;;
39434;SDS011;30098;51.880;-0.518;2022-08-02T01:10:03;0.95;;;0.90;;
39434;SDS011;30098;51.880;-0.518;2022-08-02T01:12:30;1.00;;;0.90;;
39434;SDS011;30098;51.880;-0.518;2022-08-02T01:14:57;1.10;;;1.00;;
39434;SDS011;30098;51.880;-0.518;2022-08-02T01:26:05;1.20;;;1.10;;
39434;SDS011;30098;51.880;-0.518;2022-08-02T01:28:42;1.10;;;1.00;;
39434;SDS011;30098;51.880;-0.518;2022-08-02T01:33:55;1.10;;;1.00;;
39434;SDS011;30098;51.880;-0.518;2022-08-02T01:36:28;1.08;;;0.98;;
39434;SDS011;30098;51.880;-0.518;2022-08-02T01:38:57;0.93;;;0.90;;
39434;SDS011;30098;51.880;-0.518;2022-08-02T01:41:25;1.20;;;1.10;;
39434;SDS011;30098;51.880;-0.518;2022-08-02T01:43:56;1.08;;;0.98;;
39434;SDS011;30098;51.880;-0.518;2022-08-02T01:46:24;1.10;;;1.00;;
39434;SDS011;30098;51.880;-0.518;2022-08-02T01:48:52;0.80;;;0.80;;
39434;SDS011;30098;51.880;-0.518;2022-08-02T01:51:19;1.10;;;1.00;;
39434;SDS011;30098;51.880;-0.518;2022-08-02T01:54:06;1.20;;;1.10;;
39434;SDS011;30098;51.880;-0.518;2022-08-02T01:56:35;1.10;;;1.00;;
39434;SDS011;30098;51.880;-0.518;2022-08-02T01:59:02;1.00;;;0.90;;
39434;SDS011;30098;51.880;-0.518;2022-08-02T02:01:30;0.80;;;0.80;;
39434;SDS011;30098;51.880;-0.518;2022-08-02T02:03:57;1.08;;;0.98;;
39434;SDS011;30098;51.880;-0.518;2022-08-02T02:06:25;1.10;;;1.00;;
39434;SDS011;30098;51.880;-0.518;2022-08-02T02:08:51;1.10;;;1.00;;
39434;SDS011;30098;51.880;-0.518;2022-08-02T02:11:17;1.23;;;1.00;;
39434;SDS011;30098;51.880;-0.518;2022-08-02T02:13:43;0.88;;;0.80;;
39434;SDS011;30098;51.880;-0.518;2022-08-02T02:16:09;1.00;;;0.90;;
39434;SDS011;30098;51.880;-0.518;2022-08-02T02:18:38;0.90;;;0.90;;
39434;SDS011;30098;51.880;-0.518;2022-08-02T02:21:06;0.90;;;0.90;;
39434;SDS011;30098;51.880;-0.518;2022-08-02T02:23:31;0.95;;;0.95;;
39434;SDS011;30098;51.880;-0.518;2022-08-02T02:25:57;1.30;;;1.00;;
39434;SDS011;30098;51.880;-0.518;2022-08-02T02:28:25;0.80;;;0.80;;
39434;SDS011;30098;51.880;-0.518;2022-08-02T02:30:58;1.20;;;1.10;;
39434;SDS011;30098;51.880;-0.518;2022-08-02T02:33:27;0.98;;;0.93;;
39434;SDS011;30098;51.880;-0.518;2022-08-02T02:35:56;1.10;;;1.00;;
39434;SDS011;30098;51.880;-0.518;2022-08-02T02:38:23;1.00;;;1.00;;
39434;SDS011;30098;51.880;-0.518;2022-08-02T02:40:54;1.00;;;0.90;;
39434;SDS011;30098;51.880;-0.518;2022-08-02T02:43:23;0.90;;;0.90;;
39434;SDS011;30098;51.880;-0.518;2022-08-02T02:45:51;1.00;;;0.95;;
39434;SDS011;30098;51.880;-0.518;2022-08-02T02:48:19;1.13;;;1.00;;
39434;SDS011;30098;51.880;-0.518;2022-08-02T02:50:45;1.10;;;1.00;;
39434;SDS011;30098;51.880;-0.518;2022-08-02T02:53:11;0.80;;;0.80;;
39434;SDS011;30098;51.880;-0.518;2022-08-02T02:55:40;0.90;;;0.90;;
39434;SDS011;30098;51.880;-0.518;2022-08-02T02:58:07;0.93;;;0.90;;
39434;SDS011;30098;51.880;-0.518;2022-08-02T03:00:34;1.08;;;0.98;;
39434;SDS011;30098;51.880;-0.518;2022-08-02T03:03:18;0.90;;;0.90;;
39434;SDS011;30098;51.880;-0.518;2022-08-02T03:05:44;1.00;;;0.90;;
39434;SDS011;30098;51.880;-0.518;2022-08-02T03:08:10;1.00;;;0.90;;
39434;SDS011;30098;51.880;-0.518;2022-08-02T03:10:35;0.70;;;0.70;;
39434;SDS011;30098;51.880;-0.518;2022-08-02T03:13:02;0.80;;;0.80;;
39434;SDS011;30098;51.880;-0.518;2022-08-02T03:15:28;1.17;;;1.08;;
39434;SDS011;30098;51.880;-0.518;2022-08-02T03:17:55;0.88;;;0.88;;
39434;SDS011;30098;51.880;-0.518;2022-08-02T03:20:20;1.13;;;1.02;;
39434;SDS011;30098;51.880;-0.518;2022-08-02T03:22:49;0.85;;;0.85;;
39434;SDS011;30098;51.880;-0.518;2022-08-02T03:25:16;1.00;;;0.90;;
39434;SDS011;30098;51.880;-0.518;2022-08-02T03:27:42;1.17;;;1.08;;
39434;SDS011;30098;51.880;-0.518;2022-08-02T03:30:08;0.80;;;0.80;;
39434;SDS011;30098;51.880;-0.518;2022-08-02T03:32:36;0.73;;;0.73;;
39434;SDS011;30098;51.880;-0.518;2022-08-02T03:35:04;1.02;;;1.00;;
39434;SDS011;30098;51.880;-0.518;2022-08-02T03:37:32;1.10;;;1.00;;
39434;SDS011;30098;51.880;-0.518;2022-08-02T03:39:59;0.90;;;0.90;;
39434;SDS011;30098;51.880;-0.518;2022-08-02T03:42:25;0.80;;;0.80;;
39434;SDS011;30098;51.880;-0.518;2022-08-02T03:44:53;0.98;;;0.98;;
39434;SDS011;30098;51.880;-0.518;2022-08-02T03:47:20;0.90;;;0.90;;
39434;SDS011;30098;51.880;-0.518;2022-08-02T03:49:47;1.20;;;0.90;;
39434;SDS011;30098;51.880;-0.518;2022-08-02T03:52:14;0.90;;;0.90;;
39434;SDS011;30098;51.880;-0.518;2022-08-02T03:54:40;1.00;;;0.90;;
39434;SDS011;30098;51.880;-0.518;2022-08-02T03:57:06;0.80;;;0.80;;
39434;SDS011;30098;51.880;-0.518;2022-08-02T03:59:39;1.10;;;1.00;;
39434;SDS011;30098;51.880;-0.518;2022-08-02T04:02:06;1.15;;;1.00;;
39434;SDS011;30098;51.880;-0.518;2022-08-02T04:04:31;1.17;;;1.02;;
39434;SDS011;30098;51.880;-0.518;2022-08-02T04:06:57;0.93;;;0.90;;
39434;SDS011;30098;51.880;-0.518;2022-08-02T04:09:22;1.20;;;1.00;;
39434;SDS011;30098;51.880;-0.518;2022-08-02T04:11:48;1.00;;;0.90;;
39434;SDS011;30098;51.880;-0.518;2022-08-02T04:14:13;1.13;;;1.00;;
39434;SDS011;30098;51.880;-0.518;2022-08-02T04:19:07;1.08;;;0.98;;
39434;SDS011;30098;51.880;-0.518;2022-08-02T04:21:35;0.80;;;0.80;;
39434;SDS011;30098;51.880;-0.518;2022-08-02T04:24:03;1.67;;;1.15;;
39434;SDS011;30098;51.880;-0.518;2022-08-02T04:26:32;0.80;;;0.80;;
39434;SDS011;30098;51.880;-0.518;2022-08-02T04:28:59;0.80;;;0.80;;
39434;SDS011;30098;51.880;-0.518;2022-08-02T04:31:25;1.00;;;0.90;;
39434;SDS011;30098;51.880;-0.518;2022-08-02T04:33:51;0.80;;;0.80;;
39434;SDS011;30098;51.880;-0.518;2022-08-02T04:36:17;1.25;;;1.00;;
39434;SDS011;30098;51.880;-0.518;2022-08-02T04:38:43;1.10;;;1.00;;
39434;SDS011;30098;51.880;-0.518;2022-08-02T04:41:08;1.00;;;0.90;;
39434;SDS011;30098;51.880;-0.518;2022-08-02T04:43:34;0.95;;;0.90;;
39434;SDS011;30098;51.880;-0.518;2022-08-02T04:45:59;0.80;;;0.80;;
39434;SDS011;30098;51.880;-0.518;2022-08-02T04:48:27;0.75;;;0.75;;
39434;SDS011;30098;51.880;-0.518;2022-08-02T04:50:53;1.05;;;0.95;;
39434;SDS011;30098;51.880;-0.518;2022-08-02T04:53:19;0.82;;;0.82;;
39434;SDS011;30098;51.880;-0.518;2022-08-02T04:55:45;0.88;;;0.88;;
39434;SDS011;30098;51.880;-0.518;2022-08-02T04:58:11;0.90;;;0.90;;
39434;SDS011;30098;51.880;-0.518;2022-08-02T05:00:37;0.80;;;0.80;;
39434;SDS011;30098;51.880;-0.518;2022-08-02T05:03:02;1.63;;;0.90;;
39434;SDS011;30098;51.880;-0.518;2022-08-02T05:05:28;0.80;;;0.80;;
39434;SDS011;30098;51.880;-0.518;2022-08-02T05:07:54;0.85;;;0.85;;
39434;SDS011;30098;51.880;-0.518;2022-08-02T05:10:19;0.95;;;0.80;;
39434;SDS011;30098;51.880;-0.518;2022-08-02T05:12:45;1.20;;;1.10;;
39434;SDS011;30098;51.880;-0.518;2022-08-02T05:15:11;0.98;;;0.88;;
39434;SDS011;30098;51.880;-0.518;2022-08-02T05:17:40;1.00;;;0.90;;
39434;SDS011;30098;51.880;-0.518;2022-08-02T05:20:07;1.00;;;0.90;;
39434;SDS011;30098;51.880;-0.518;2022-08-02T05:22:33;0.88;;;0.88;;
39434;SDS011;30098;51.880;-0.518;2022-08-02T05:24:58;0.80;;;0.80;;
39434;SDS011;30098;51.880;-0.518;2022-08-02T05:27:24;1.00;;;0.80;;
39434;SDS011;30098;51.880;-0.518;2022-08-02T05:29:49;0.82;;;0.80;;
39434;SDS011;30098;51.880;-0.518;2022-08-02T05:32:16;1.20;;;1.10;;
39434;SDS011;30098;51.880;-0.518;2022-08-02T05:34:42;0.98;;;0.90;;
39434;SDS011;30098;51.880;-0.518;2022-08-02T05:37:08;0.90;;;0.90;;
39434;SDS011;30098;51.880;-0.518;2022-08-02T05:39:33;0.90;;;0.90;;
39434;SDS011;30098;51.880;-0.518;2022-08-02T05:41:59;0.98;;;0.80;;
39434;SDS011;30098;51.880;-0.518;2022-08-02T05:44:25;1.10;;;0.80;;
39434;SDS011;30098;51.880;-0.518;2022-08-02T05:46:50;1.08;;;1.00;;
39434;SDS011;30098;51.880;-0.518;2022-08-02T05:49:16;0.90;;;0.90;;
39434;SDS011;30098;51.880;-0.518;2022-08-02T05:51:47;1.00;;;0.90;;
39434;SDS011;30098;51.880;-0.518;2022-08-02T06:01:56;0.90;;;0.90;;
39434;SDS011;30098;51.880;-0.518;2022-08-02T06:04:30;1.10;;;1.00;;
39434;SDS011;30098;51.880;-0.518;2022-08-02T06:07:05;1.15;;;0.80;;
39434;SDS011;30098;51.880;-0.518;2022-08-02T06:09:34;0.82;;;0.82;;
39434;SDS011;30098;51.880;-0.518;2022-08-02T06:12:02;1.83;;;1.00;;
39434;SDS011;30098;51.880;-0.518;2022-08-02T06:14:32;1.10;;;0.90;;
39434;SDS011;30098;51.880;-0.518;2022-08-02T06:17:05;1.80;;;0.88;;
39434;SDS011;30098;51.880;-0.518;2022-08-02T06:19:31;1.38;;;0.90;;
39434;SDS011;30098;51.880;-0.518;2022-08-02T06:21:57;0.90;;;0.80;;
39434;SDS011;30098;51.880;-0.518;2022-08-02T06:24:41;0.93;;;0.80;;
39434;SDS011;30098;51.880;-0.518;2022-08-02T06:27:10;1.10;;;0.90;;
39434;SDS011;30098;51.880;-0.518;2022-08-02T06:29:43;0.73;;;0.70;;
39434;SDS011;30098;51.880;-0.518;2022-08-02T06:32:10;0.90;;;0.77;;
39434;SDS011;30098;51.880;-0.518;2022-08-02T06:34:37;0.80;;;0.75;;
39434;SDS011;30098;51.880;-0.518;2022-08-02T06:39:46;1.15;;;0.85;;
39434;SDS011;30098;51.880;-0.518;2022-08-02T06:42:14;1.05;;;0.80;;
39434;SDS011;30098;51.880;-0.518;2022-08-02T06:44:45;0.82;;;0.80;;
39434;SDS011;30098;51.880;-0.518;2022-08-02T06:47:11;0.90;;;0.80;;
39434;SDS011;30098;51.880;-0.518;2022-08-02T06:49:36;1.00;;;0.82;;
39434;SDS011;30098;51.880;-0.518;2022-08-02T06:52:02;0.85;;;0.82;;
39434;SDS011;30098;51.880;-0.518;2022-08-02T06:54:28;0.80;;;0.80;;
39434;SDS011;30098;51.880;-0.518;2022-08-02T06:56:54;1.08;;;0.90;;
39434;SDS011;30098;51.880;-0.518;2022-08-02T06:59:19;1.45;;;1.00;;
39434;SDS011;30098;51.880;-0.518;2022-08-02T07:01:45;1.15;;;0.80;;
39434;SDS011;30098;51.880;-0.518;2022-08-02T07:04:10;1.30;;;0.90;;
39434;SDS011;30098;51.880;-0.518;2022-08-02T07:06:36;0.82;;;0.75;;
39434;SDS011;30098;51.880;-0.518;2022-08-02T07:09:01;1.50;;;1.00;;
39434;SDS011;30098;51.880;-0.518;2022-08-02T07:11:27;2.05;;;0.80;;
39434;SDS011;30098;51.880;-0.518;2022-08-02T07:13:53;2.88;;;1.30;;
39434;SDS011;30098;51.880;-0.518;2022-08-02T07:16:18;3.70;;;1.30;;
39434;SDS011;30098;51.880;-0.518;2022-08-02T07:18:44;5.93;;;1.52;;
39434;SDS011;30098;51.880;-0.518;2022-08-02T07:21:09;4.22;;;1.45;;
39434;SDS011;30098;51.880;-0.518;2022-08-02T07:23:35;3.15;;;1.27;;
39434;SDS011;30098;51.880;-0.518;2022-08-02T07:26:00;7.35;;;1.58;;
39434;SDS011;30098;51.880;-0.518;2022-08-02T07:28:26;5.07;;;1.55;;
39434;SDS011;30098;51.880;-0.518;2022-08-02T07:30:51;8.02;;;1.70;;
39434;SDS011;30098;51.880;-0.518;2022-08-02T07:33:17;7.55;;;1.58;;
39434;SDS011;30098;51.880;-0.518;2022-08-02T07:35:42;7.88;;;1.63;;
39434;SDS011;30098;51.880;-0.518;2022-08-02T07:38:08;7.05;;;1.58;;
39434;SDS011;30098;51.880;-0.518;2022-08-02T07:40:33;6.22;;;1.55;;
39434;SDS011;30098;51.880;-0.518;2022-08-02T07:42:59;10.77;;;1.60;;
39434;SDS011;30098;51.880;-0.518;2022-08-02T07:45:25;8.73;;;1.83;;
39434;SDS011;30098;51.880;-0.518;2022-08-02T07:47:51;6.32;;;1.52;;
39434;SDS011;30098;51.880;-0.518;2022-08-02T07:50:18;9.43;;;1.58;;
39434;SDS011;30098;51.880;-0.518;2022-08-02T07:52:45;8.85;;;1.50;;
39434;SDS011;30098;51.880;-0.518;2022-08-02T07:55:11;10.50;;;1.45;;
39434;SDS011;30098;51.880;-0.518;2022-08-02T07:57:39;9.32;;;1.60;;
39434;SDS011;30098;51.880;-0.518;2022-08-02T08:00:05;7.22;;;1.77;;
39434;SDS011;30098;51.880;-0.518;2022-08-02T08:02:33;6.75;;;1.65;;
39434;SDS011;30098;51.880;-0.518;2022-08-02T08:04:59;7.50;;;1.20;;
39434;SDS011;30098;51.880;-0.518;2022-08-02T08:07:24;4.97;;;1.60;;
39434;SDS011;30098;51.880;-0.518;2022-08-02T08:09:50;7.57;;;1.75;;
39434;SDS011;30098;51.880;-0.518;2022-08-02T08:12:15;8.80;;;1.70;;
39434;SDS011;30098;51.880;-0.518;2022-08-02T08:14:41;6.50;;;1.40;;
39434;SDS011;30098;51.880;-0.518;2022-08-02T08:17:07;7.45;;;1.25;;
39434;SDS011;30098;51.880;-0.518;2022-08-02T08:19:33;8.63;;;1.70;;
39434;SDS011;30098;51.880;-0.518;2022-08-02T08:21:59;6.75;;;1.27;;
39434;SDS011;30098;51.880;-0.518;2022-08-02T08:24:29;6.18;;;1.33;;
39434;SDS011;30098;51.880;-0.518;2022-08-02T08:26:54;7.28;;;1.58;;
39434;SDS011;30098;51.880;-0.518;2022-08-02T08:29:21;4.90;;;1.20;;
39434;SDS011;30098;51.880;-0.518;2022-08-02T08:31:47;6.00;;;1.20;;
39434;SDS011;30098;51.880;-0.518;2022-08-02T08:34:13;5.65;;;1.20;;
39434;SDS011;30098;51.880;-0.518;2022-08-02T08:36:39;5.55;;;1.10;;
39434;SDS011;30098;51.880;-0.518;2022-08-02T08:39:05;5.90;;;1.40;;
39434;SDS011;30098;51.880;-0.518;2022-08-02T08:41:30;6.20;;;1.00;;
39434;SDS011;30098;51.880;-0.518;2022-08-02T08:43:56;5.20;;;0.95;;
39434;SDS011;30098;51.880;-0.518;2022-08-02T08:46:30;3.95;;;0.80;;
39434;SDS011;30098;51.880;-0.518;2022-08-02T08:48:59;5.80;;;1.00;;
39434;SDS011;30098;51.880;-0.518;2022-08-02T08:51:29;4.00;;;1.08;;
39434;SDS011;30098;51.880;-0.518;2022-08-02T08:54:01;5.63;;;0.88;;
39434;SDS011;30098;51.880;-0.518;2022-08-02T08:56:33;4.40;;;0.90;;
39434;SDS011;30098;51.880;-0.518;2022-08-02T08:59:00;5.60;;;1.08;;
39434;SDS011;30098;51.880;-0.518;2022-08-02T09:01:26;7.53;;;1.10;;
39434;SDS011;30098;51.880;-0.518;2022-08-02T09:03:52;6.60;;;1.25;;
39434;SDS011;30098;51.880;-0.518;2022-08-02T09:06:18;6.63;;;1.23;;
39434;SDS011;30098;51.880;-0.518;2022-08-02T09:08:44;4.45;;;0.95;;
39434;SDS011;30098;51.880;-0.518;2022-08-02T09:11:13;4.03;;;1.13;;
39434;SDS011;30098;51.880;-0.518;2022-08-02T09:13:50;3.65;;;0.80;;
39434;SDS011;30098;51.880;-0.518;2022-08-02T09:16:26;5.80;;;1.10;;
39434;SDS011;30098;51.880;-0.518;2022-08-02T09:18:54;5.15;;;0.90;;
39434;SDS011;30098;51.880;-0.518;2022-08-02T09:21:20;6.25;;;0.85;;
39434;SDS011;30098;51.880;-0.518;2022-08-02T09:23:46;5.63;;;0.85;;
39434;SDS011;30098;51.880;-0.518;2022-08-02T09:26:15;5.47;;;0.98;;
39434;SDS011;30098;51.880;-0.518;2022-08-02T09:28:43;3.45;;;0.60;;
39434;SDS011;30098;51.880;-0.518;2022-08-02T09:31:17;5.07;;;0.90;;
39434;SDS011;30098;51.880;-0.518;2022-08-02T09:34:06;4.50;;;0.70;;
39434;SDS011;30098;51.880;-0.518;2022-08-02T09:36:38;6.15;;;1.00;;
39434;SDS011;30098;51.880;-0.518;2022-08-02T09:39:10;4.28;;;0.65;;
39434;SDS011;30098;51.880;-0.518;2022-08-02T09:41:37;2.55;;;0.60;;
39434;SDS011;30098;51.880;-0.518;2022-08-02T09:44:07;4.60;;;0.70;;
39434;SDS011;30098;51.880;-0.518;2022-08-02T09:46:39;3.33;;;0.88;;
39434;SDS011;30098;51.880;-0.518;2022-08-02T09:51:38;5.88;;;1.02;;
39434;SDS011;30098;51.880;-0.518;2022-08-02T09:54:06;4.55;;;0.60;;
39434;SDS011;30098;51.880;-0.518;2022-08-02T09:59:26;4.78;;;1.02;;
39434;SDS011;30098;51.880;-0.518;2022-08-02T10:01:53;7.22;;;1.10;;
39434;SDS011;30098;51.880;-0.518;2022-08-02T10:04:21;3.88;;;0.70;;
39434;SDS011;30098;51.880;-0.518;2022-08-02T10:06:49;7.68;;;1.10;;
39434;SDS011;30098;51.880;-0.518;2022-08-02T10:09:16;2.55;;;0.85;;
39434;SDS011;30098;51.880;-0.518;2022-08-02T10:11:41;2.75;;;0.70;;
39434;SDS011;30098;51.880;-0.518;2022-08-02T10:14:08;9.82;;;1.52;;
39434;SDS011;30098;51.880;-0.518;2022-08-02T10:16:36;4.72;;;0.80;;
39434;SDS011;30098;51.880;-0.518;2022-08-02T10:19:03;3.17;;;0.77;;
39434;SDS011;30098;51.880;-0.518;2022-08-02T10:21:31;3.30;;;1.00;;
39434;SDS011;30098;51.880;-0.518;2022-08-02T10:24:05;2.35;;;0.60;;
39434;SDS011;30098;51.880;-0.518;2022-08-02T10:26:32;3.10;;;0.70;;
39434;SDS011;30098;51.880;-0.518;2022-08-02T10:28:58;4.40;;;0.63;;
39434;SDS011;30098;51.880;-0.518;2022-08-02T10:31:24;5.47;;;0.60;;
39434;SDS011;30098;51.880;-0.518;2022-08-02T10:33:54;6.80;;;1.30;;
39434;SDS011;30098;51.880;-0.518;2022-08-02T10:36:24;4.23;;;0.63;;
39434;SDS011;30098;51.880;-0.518;2022-08-02T10:38:51;4.45;;;0.82;;
39434;SDS011;30098;51.880;-0.518;2022-08-02T10:44:29;5.93;;;1.10;;
39434;SDS011;30098;51.880;-0.518;2022-08-02T10:52:23;4.78;;;1.00;;
39434;SDS011;30098;51.880;-0.518;2022-08-02T10:54:56;4.43;;;1.10;;
39434;SDS011;30098;51.880;-0.518;2022-08-02T10:57:35;5.10;;;0.90;;
39434;SDS011;30098;51.880;-0.518;2022-08-02T11:02:41;5.90;;;1.10;;
39434;SDS011;30098;51.880;-0.518;2022-08-02T11:05:15;6.63;;;1.10;;
39434;SDS011;30098;51.880;-0.518;2022-08-02T11:07:43;5.22;;;1.00;;
39434;SDS011;30098;51.880;-0.518;2022-08-02T11:15:50;6.95;;;1.02;;
39434;SDS011;30098;51.880;-0.518;2022-08-02T11:18:19;8.90;;;1.00;;
39434;SDS011;30098;51.880;-0.518;2022-08-02T11:20:46;6.32;;;0.90;;
39434;SDS011;30098;51.880;-0.518;2022-08-02T11:25:59;5.80;;;0.80;;
39434;SDS011;30098;51.880;-0.518;2022-08-02T11:28:25;5.95;;;1.23;;
39434;SDS011;30098;51.880;-0.518;2022-08-02T11:30:57;4.13;;;0.68;;
39434;SDS011;30098;51.880;-0.518;2022-08-02T11:33:30;4.60;;;0.65;;
39434;SDS011;30098;51.880;-0.518;2022-08-02T11:36:01;2.40;;;0.60;;
39434;SDS011;30098;51.880;-0.518;2022-08-02T11:38:28;2.20;;;0.70;;
39434;SDS011;30098;51.880;-0.518;2022-08-02T11:40:54;3.45;;;0.80;;
39434;SDS011;30098;51.880;-0.518;2022-08-02T11:43:23;6.18;;;1.00;;
39434;SDS011;30098;51.880;-0.518;2022-08-02T11:45:54;12.57;;;2.28;;
39434;SDS011;30098;51.880;-0.518;2022-08-02T11:48:37;9.30;;;1.30;;
39434;SDS011;30098;51.880;-0.518;2022-08-02T11:51:14;6.95;;;1.00;;
39434;SDS011;30098;51.880;-0.518;2022-08-02T11:56:14;5.80;;;0.70;;
39434;SDS011;30098;51.880;-0.518;2022-08-02T11:58:40;4.65;;;0.60;;
39434;SDS011;30098;51.880;-0.518;2022-08-02T12:01:06;3.67;;;0.80;;
39434;SDS011;30098;51.880;-0.518;2022-08-02T12:03:38;4.35;;;0.82;;
39434;SDS011;30098;51.880;-0.518;2022-08-02T12:06:04;2.53;;;0.70;;
39434;SDS011;30098;51.880;-0.518;2022-08-02T12:08:31;3.92;;;0.75;;
39434;SDS011;30098;51.880;-0.518;2022-08-02T12:10:59;1.77;;;0.60;;
39434;SDS011;30098;51.880;-0.518;2022-08-02T12:13:26;2.65;;;0.70;;
39434;SDS011;30098;51.880;-0.518;2022-08-02T12:15:52;2.92;;;0.60;;
39434;SDS011;30098;51.880;-0.518;2022-08-02T12:18:19;3.13;;;0.80;;
39434;SDS011;30098;51.880;-0.518;2022-08-02T12:21:25;5.95;;;0.80;;
39434;SDS011;30098;51.880;-0.518;2022-08-02T12:23:50;3.00;;;0.70;;
39434;SDS011;30098;51.880;-0.518;2022-08-02T12:26:16;1.50;;;0.43;;
39434;SDS011;30098;51.880;-0.518;2022-08-02T12:28:42;2.50;;;0.50;;
39434;SDS011;30098;51.880;-0.518;2022-08-02T12:31:08;1.67;;;0.30;;
39434;SDS011;30098;51.880;-0.518;2022-08-02T12:33:49;3.28;;;0.60;;
39434;SDS011;30098;51.880;-0.518;2022-08-02T12:36:19;1.75;;;0.47;;
39434;SDS011;30098;51.880;-0.518;2022-08-02T12:39:04;2.67;;;0.40;;
39434;SDS011;30098;51.880;-0.518;2022-08-02T12:41:36;1.58;;;0.43;;
39434;SDS011;30098;51.880;-0.518;2022-08-02T12:44:03;3.03;;;0.60;;
39434;SDS011;30098;51.880;-0.518;2022-08-02T12:46:28;3.38;;;0.60;;
39434;SDS011;30098;51.880;-0.518;2022-08-02T12:48:56;2.40;;;0.40;;
39434;SDS011;30098;51.880;-0.518;2022-08-02T12:53:53;1.73;;;0.40;;
39434;SDS011;30098;51.880;-0.518;2022-08-02T12:56:25;1.75;;;0.55;;
39434;SDS011;30098;51.880;-0.518;2022-08-02T12:58:55;2.47;;;0.57;;
39434;SDS011;30098;51.880;-0.518;2022-08-02T13:01:21;1.38;;;0.40;;
39434;SDS011;30098;51.880;-0.518;2022-08-02T13:03:48;3.75;;;0.57;;
39434;SDS011;30098;51.880;-0.518;2022-08-02T13:06:15;3.58;;;0.50;;
39434;SDS011;30098;51.880;-0.518;2022-08-02T13:08:41;1.02;;;0.40;;
39434;SDS011;30098;51.880;-0.518;2022-08-02T13:11:06;1.67;;;0.47;;
39434;SDS011;30098;51.880;-0.518;2022-08-02T13:13:32;1.15;;;0.30;;
39434;SDS011;30098;51.880;-0.518;2022-08-02T13:15:57;1.73;;;0.52;;
39434;SDS011;30098;51.880;-0.518;2022-08-02T13:18:23;1.55;;;0.40;;
39434;SDS011;30098;51.880;-0.518;2022-08-02T13:20:48;3.22;;;0.65;;
39434;SDS011;30098;51.880;-0.518;2022-08-02T13:23:14;1.95;;;0.50;;
39434;SDS011;30098;51.880;-0.518;2022-08-02T13:25:40;3.10;;;0.60;;
39434;SDS011;30098;51.880;-0.518;2022-08-02T13:28:06;5.97;;;1.00;;
39434;SDS011;30098;51.880;-0.518;2022-08-02T13:30:32;4.03;;;0.73;;
39434;SDS011;30098;51.880;-0.518;2022-08-02T13:32:57;1.77;;;0.63;;
39434;SDS011;30098;51.880;-0.518;2022-08-02T13:35:23;2.47;;;0.50;;
39434;SDS011;30098;51.880;-0.518;2022-08-02T13:37:48;3.92;;;0.40;;
39434;SDS011;30098;51.880;-0.518;2022-08-02T13:40:14;3.00;;;0.50;;
39434;SDS011;30098;51.880;-0.518;2022-08-02T13:42:40;4.85;;;0.60;;
39434;SDS011;30098;51.880;-0.518;2022-08-02T13:45:06;2.35;;;0.70;;
39434;SDS011;30098;51.880;-0.518;2022-08-02T13:47:31;3.63;;;0.70;;
39434;SDS011;30098;51.880;-0.518;2022-08-02T13:49:57;5.05;;;0.98;;
39434;SDS011;30098;51.880;-0.518;2022-08-02T13:52:23;3.22;;;0.73;;
39434;SDS011;30098;51.880;-0.518;2022-08-02T13:54:48;5.93;;;0.70;;
39434;SDS011;30098;51.880;-0.518;2022-08-02T13:57:14;2.33;;;0.63;;
39434;SDS011;30098;51.880;-0.518;2022-08-02T13:59:39;1.83;;;0.60;;
39434;SDS011;30098;51.880;-0.518;2022-08-02T14:02:05;2.40;;;0.70;;
39434;SDS011;30098;51.880;-0.518;2022-08-02T14:04:31;4.00;;;1.00;;
39434;SDS011;30098;51.880;-0.518;2022-08-02T14:06:56;8.55;;;2.13;;
39434;SDS011;30098;51.880;-0.518;2022-08-02T14:09:23;10.73;;;2.20;;
39434;SDS011;30098;51.880;-0.518;2022-08-02T14:11:49;10.32;;;2.33;;
39434;SDS011;30098;51.880;-0.518;2022-08-02T14:14:15;8.35;;;1.85;;
39434;SDS011;30098;51.880;-0.518;2022-08-02T14:16:40;5.03;;;1.40;;
39434;SDS011;30098;51.880;-0.518;2022-08-02T14:19:06;13.13;;;2.50;;
39434;SDS011;30098;51.880;-0.518;2022-08-02T14:21:33;7.70;;;1.52;;
39434;SDS011;30098;51.880;-0.518;2022-08-02T14:23:58;5.78;;;1.55;;
39434;SDS011;30098;51.880;-0.518;2022-08-02T14:26:24;7.35;;;1.27;;
39434;SDS011;30098;51.880;-0.518;2022-08-02T14:28:49;3.53;;;1.17;;
39434;SDS011;30098;51.880;-0.518;2022-08-02T14:31:15;6.82;;;1.65;;
39434;SDS011;30098;51.880;-0.518;2022-08-02T14:33:41;5.43;;;1.30;;
39434;SDS011;30098;51.880;-0.518;2022-08-02T14:36:06;7.80;;;1.17;;
39434;SDS011;30098;51.880;-0.518;2022-08-02T14:38:32;9.35;;;1.80;;
39434;SDS011;30098;51.880;-0.518;2022-08-02T14:40:59;6.72;;;2.10;;
39434;SDS011;30098;51.880;-0.518;2022-08-02T14:43:24;6.50;;;1.67;;
39434;SDS011;30098;51.880;-0.518;2022-08-02T14:46:08;8.75;;;1.10;;
39434;SDS011;30098;51.880;-0.518;2022-08-02T14:48:34;4.30;;;0.95;;
39434;SDS011;30098;51.880;-0.518;2022-08-02T14:50:59;3.40;;;1.10;;
39434;SDS011;30098;51.880;-0.518;2022-08-02T14:53:25;4.10;;;0.73;;
39434;SDS011;30098;51.880;-0.518;2022-08-02T14:55:50;3.17;;;0.85;;
39434;SDS011;30098;51.880;-0.518;2022-08-02T14:58:16;3.05;;;0.88;;
39434;SDS011;30098;51.880;-0.518;2022-08-02T15:00:41;5.35;;;1.20;;
39434;SDS011;30098;51.880;-0.518;2022-08-02T15:03:07;3.95;;;0.75;;
39434;SDS011;30098;51.880;-0.518;2022-08-02T15:05:33;7.45;;;1.10;;
39434;SDS011;30098;51.880;-0.518;2022-08-02T15:07:59;8.30;;;1.00;;
39434;SDS011;30098;51.880;-0.518;2022-08-02T15:10:24;10.88;;;1.25;;
39434;SDS011;30098;51.880;-0.518;2022-08-02T15:12:50;7.10;;;1.17;;
39434;SDS011;30098;51.880;-0.518;2022-08-02T15:15:15;5.05;;;0.85;;
39434;SDS011;30098;51.880;-0.518;2022-08-02T15:17:41;7.63;;;0.85;;
39434;SDS011;30098;51.880;-0.518;2022-08-02T15:20:06;7.43;;;1.20;;
39434;SDS011;30098;51.880;-0.518;2022-08-02T15:22:32;6.45;;;0.95;;
39434;SDS011;30098;51.880;-0.518;2022-08-02T15:24:58;6.53;;;1.33;;
39434;SDS011;30098;51.880;-0.518;2022-08-02T15:27:23;7.03;;;1.42;;
39434;SDS011;30098;51.880;-0.518;2022-08-02T15:29:49;4.57;;;1.17;;